Time;durP1;ratioP1;P1;durP2;ratioP2;P2;SDS_P1;SDS_P2;PMS_P1;PMS_P2;Temp;Humidity;BMP_temperature;BMP_pressure;BME280_temperature;BME280_humidity;BME280_pressure;Samples;Min_cycle;Max_cycle;Signal;HPM_P1;HPM_P2
2022/11/27 00:02:15;;;;;;;12.25;4.75;;;;;;;5.89;100.00;102532.34;5011075;28;20049;-67
2022/11/27 00:04:41;;;;;;;14.55;5.78;;;;;;;5.85;100.00;102536.00;5019843;28;20099;-66
2022/11/27 00:07:08;;;;;;;15.05;4.72;;;;;;;5.90;100.00;102530.56;5002961;28;20091;-68
2022/11/27 00:09:34;;;;;;;10.93;4.63;;;;;;;5.85;100.00;102522.16;5013769;28;20615;-67
2022/11/27 00:12:01;;;;;;;15.27;5.13;;;;;;;5.92;100.00;102524.38;5023671;28;20111;-66
2022/11/27 00:14:27;;;;;;;14.45;5.82;;;;;;;5.93;100.00;102523.47;5010148;28;20127;-67
2022/11/27 00:16:54;;;;;;;14.35;4.32;;;;;;;6.00;100.00;102515.38;5002956;28;20123;-66
2022/11/27 00:19:20;;;;;;;13.30;4.90;;;;;;;5.96;100.00;102517.31;4995963;28;20120;-67
2022/11/27 00:21:46;;;;;;;17.55;5.25;;;;;;;5.96;100.00;102513.84;5011053;28;20422;-67
2022/11/27 00:24:13;;;;;;;11.68;5.18;;;;;;;5.87;100.00;102502.09;5016811;28;20066;-66
2022/11/27 00:26:39;;;;;;;11.35;4.45;;;;;;;5.96;100.00;102498.22;5009841;28;20052;-67
2022/11/27 00:29:06;;;;;;;14.15;5.18;;;;;;;5.94;100.00;102499.09;5008920;28;20453;-67
2022/11/27 00:31:33;;;;;;;21.98;5.35;;;;;;;5.88;100.00;102499.41;5009542;28;20053;-67
2022/11/27 00:34:02;;;;;;;14.40;5.40;;;;;;;5.94;100.00;102496.50;5008225;28;20058;-67
2022/11/27 00:36:31;;;;;;;13.35;5.18;;;;;;;5.90;100.00;102489.75;5007619;28;20052;-67
2022/11/27 00:38:57;;;;;;;13.73;5.03;;;;;;;5.90;100.00;102499.31;5021927;28;20058;-67
2022/11/27 00:41:26;;;;;;;15.73;4.93;;;;;;;5.91;100.00;102490.59;5011633;28;20057;-67
2022/11/27 00:43:53;;;;;;;13.63;5.65;;;;;;;5.92;100.00;102484.50;5010411;28;20057;-67
2022/11/27 00:46:24;;;;;;;17.73;5.50;;;;;;;5.93;100.00;102481.78;5019094;28;20124;-68
2022/11/27 00:48:58;;;;;;;12.40;5.20;;;;;;;5.93;100.00;102484.38;5022660;28;20046;-66
2022/11/27 00:51:26;;;;;;;16.95;5.28;;;;;;;5.99;100.00;102470.25;5018522;28;20460;-67
2022/11/27 00:53:53;;;;;;;15.63;4.90;;;;;;;5.88;100.00;102478.56;5016989;28;20069;-66
2022/11/27 00:56:23;;;;;;;16.73;5.22;;;;;;;5.97;100.00;102477.31;5004401;28;20064;-67
2022/11/27 00:58:50;;;;;;;13.93;5.00;;;;;;;6.01;100.00;102480.59;5003575;28;20045;-67
2022/11/27 01:01:20;;;;;;;14.10;5.13;;;;;;;5.96;100.00;102480.84;5022328;28;20058;-67
2022/11/27 01:03:48;;;;;;;9.13;4.22;;;;;;;5.98;100.00;102475.53;5014617;28;20089;-67
2022/11/27 01:06:15;;;;;;;11.48;5.10;;;;;;;5.98;100.00;102476.41;5018461;28;20112;-68
2022/11/27 01:08:43;;;;;;;8.50;4.40;;;;;;;5.98;100.00;102475.53;5018888;28;20045;-67
2022/11/27 01:11:20;;;;;;;15.52;5.40;;;;;;;5.96;100.00;102467.81;5015481;28;20350;-67
2022/11/27 01:13:47;;;;;;;12.80;4.25;;;;;;;6.07;100.00;102467.28;5009181;28;20084;-67
2022/11/27 01:16:16;;;;;;;17.10;5.32;;;;;;;6.03;100.00;102471.78;5002747;28;20046;-67
2022/11/27 01:18:45;;;;;;;12.73;5.10;;;;;;;5.98;100.00;102465.13;5025826;28;20067;-67
2022/11/27 01:21:15;;;;;;;10.63;5.15;;;;;;;6.00;100.00;102463.28;5024045;28;20041;-66
2022/11/27 01:23:44;;;;;;;11.32;4.82;;;;;;;5.90;100.00;102465.47;5010348;28;20180;-67
2022/11/27 01:26:12;;;;;;;10.70;5.43;;;;;;;5.87;100.00;102469.06;5011328;28;20549;-66
2022/11/27 01:28:40;;;;;;;11.85;5.45;;;;;;;5.83;100.00;102470.13;5015725;28;20092;-67
2022/11/27 01:31:21;;;;;;;14.43;5.53;;;;;;;5.75;100.00;102462.69;5025623;28;20078;-67
2022/11/27 01:33:56;;;;;;;14.70;5.32;;;;;;;5.71;100.00;102455.94;5017272;28;20325;-66
2022/11/27 01:36:23;;;;;;;12.10;5.47;;;;;;;5.72;100.00;102448.97;5028711;28;20053;-65
2022/11/27 01:38:49;;;;;;;12.75;4.55;;;;;;;5.67;100.00;102446.59;5016419;28;20049;-66
2022/11/27 01:41:21;;;;;;;13.68;5.05;;;;;;;5.66;100.00;102447.50;5023321;28;20399;-66
2022/11/27 01:43:50;;;;;;;12.27;5.03;;;;;;;5.65;100.00;102442.41;5021011;28;20049;-66
2022/11/27 01:46:30;;;;;;;8.65;4.57;;;;;;;5.57;100.00;102447.97;5013308;28;20061;-66
2022/11/27 01:49:04;;;;;;;10.15;4.97;;;;;;;5.61;100.00;102446.06;5025732;28;20056;-66
2022/11/27 01:51:31;;;;;;;12.98;5.25;;;;;;;5.53;100.00;102433.44;5002160;28;20131;-66
2022/11/27 01:53:58;;;;;;;14.35;5.70;;;;;;;5.63;100.00;102434.66;5019472;28;20103;-66
2022/11/27 01:56:26;;;;;;;13.32;5.43;;;;;;;5.61;100.00;102440.88;5007533;28;20058;-66
2022/11/27 01:58:54;;;;;;;;;;;;;;;5.70;100.00;102430.84;5026196;28;20501;-66
2022/11/27 02:01:23;;;;;;;13.18;4.82;;;;;;;5.62;100.00;102429.53;5032712;28;19960;-66
2022/11/27 02:03:49;;;;;;;12.18;5.43;;;;;;;5.61;100.00;102412.22;5025708;28;20517;-67
2022/11/27 02:06:16;;;;;;;14.80;4.95;;;;;;;5.58;100.00;102407.16;5018438;28;20065;-67
2022/11/27 02:08:42;;;;;;;13.43;5.22;;;;;;;5.55;100.00;102393.38;5009366;28;20056;-67
2022/11/27 02:11:17;;;;;;;12.50;4.93;;;;;;;5.48;100.00;102385.94;5021507;28;20710;-66
2022/11/27 02:14:22;;;;;;;12.05;5.50;;;;;;;5.47;100.00;102379.03;5023428;28;20044;-67
2022/11/27 02:17:15;;;;;;;15.38;5.70;;;;;;;5.47;100.00;102363.41;5018309;28;20053;-66
2022/11/27 02:20:06;;;;;;;12.23;5.38;;;;;;;5.35;100.00;102359.66;5016343;28;20049;-66
2022/11/27 02:22:59;;;;;;;15.40;5.55;;;;;;;5.40;100.00;102357.69;5010577;28;20053;-67
2022/11/27 02:25:46;;;;;;;11.77;4.93;;;;;;;5.41;100.00;102354.19;5015501;28;20046;-66
2022/11/27 02:28:33;;;;;;;14.15;4.80;;;;;;;5.45;100.00;102350.50;5025581;28;20064;-67
2022/11/27 02:31:10;;;;;;;14.15;5.22;;;;;;;5.49;100.00;102357.25;5014016;28;20045;-67
2022/11/27 02:33:44;;;;;;;10.48;4.88;;;;;;;5.46;100.00;102349.56;5019447;28;20055;-67
2022/11/27 02:36:15;;;;;;;11.57;4.97;;;;;;;5.49;100.00;102335.59;5008869;28;20355;-67
2022/11/27 02:38:52;;;;;;;12.98;5.18;;;;;;;5.42;100.00;102342.84;5012000;28;20050;-67
2022/11/27 02:41:24;;;;;;;11.15;5.55;;;;;;;5.37;100.00;102337.03;5020817;28;20046;-67
2022/11/27 02:43:52;;;;;;;10.95;4.85;;;;;;;5.38;100.00;102332.66;5003123;28;20053;-66
2022/11/27 02:46:19;;;;;;;13.55;4.85;;;;;;;5.35;100.00;102329.31;5018087;28;20057;-67
2022/11/27 02:48:54;;;;;;;10.35;4.68;;;;;;;5.37;100.00;102326.63;5008129;28;20056;-67
2022/11/27 02:51:36;;;;;;;14.75;5.18;;;;;;;5.39;100.00;102330.00;5018597;28;20144;-67
2022/11/27 02:54:06;;;;;;;10.95;4.20;;;;;;;5.44;100.00;102329.75;5010287;28;20065;-67
2022/11/27 02:56:33;;;;;;;11.52;4.38;;;;;;;5.45;100.00;102328.81;5002978;28;20081;-66
2022/11/27 02:59:05;;;;;;;11.77;4.60;;;;;;;5.44;100.00;102337.56;5018000;28;20486;-67
2022/11/27 03:01:38;;;;;;;14.95;5.05;;;;;;;5.40;100.00;102339.47;5014018;28;20077;-67
2022/11/27 03:04:08;;;;;;;11.90;4.50;;;;;;;5.39;100.00;102347.34;5018945;28;20050;-67
2022/11/27 03:06:42;;;;;;;17.45;4.90;;;;;;;5.37;100.00;102337.03;5004499;28;20414;-67
2022/11/27 03:09:14;;;;;;;16.05;4.72;;;;;;;5.37;100.00;102357.00;5015570;28;20631;-67
2022/11/27 03:11:40;;;;;;;13.93;4.93;;;;;;;5.30;100.00;102352.09;5020480;28;20100;-67
2022/11/27 03:14:09;;;;;;;13.45;3.95;;;;;;;5.35;100.00;102347.53;5005251;28;20050;-67
2022/11/27 03:16:55;;;;;;;13.00;4.57;;;;;;;5.45;100.00;102339.22;5024279;28;20071;-66
2022/11/27 03:19:27;;;;;;;14.00;4.25;;;;;;;5.43;100.00;102334.13;5003061;28;20339;-66
2022/11/27 03:21:59;;;;;;;14.27;4.38;;;;;;;5.42;100.00;102316.81;5019512;28;20411;-67
2022/11/27 03:24:27;;;;;;;9.60;4.25;;;;;;;5.53;100.00;102317.13;5012721;28;20662;-66
2022/11/27 03:26:55;;;;;;;10.82;3.83;;;;;;;5.52;100.00;102309.41;5015850;28;20497;-66
2022/11/27 03:29:28;;;;;;;9.38;3.25;;;;;;;5.59;100.00;102310.78;5009108;28;20054;-67
2022/11/27 03:31:56;;;;;;;18.05;4.43;;;;;;;5.51;100.00;102320.75;5008333;28;20057;-67
2022/11/27 03:34:25;;;;;;;9.38;3.72;;;;;;;5.55;100.00;102314.47;5013524;28;20083;-66
2022/11/27 03:36:51;;;;;;;10.40;4.10;;;;;;;5.51;100.00;102310.31;5010765;28;20058;-66
2022/11/27 03:39:19;;;;;;;11.68;3.80;;;;;;;5.58;100.00;102308.25;5012282;28;20048;-66
2022/11/27 03:42:23;;;;;;;7.95;3.88;;;;;;;5.62;100.00;102308.00;5013288;28;20049;-66
2022/11/27 03:45:27;;;;;;;13.35;3.80;;;;;;;5.61;100.00;102314.16;5025875;28;20060;-67
2022/11/27 03:48:19;;;;;;;11.50;4.00;;;;;;;5.67;100.00;102310.41;5007562;28;20539;-66
2022/11/27 03:51:14;;;;;;;12.50;4.00;;;;;;;5.65;100.00;102309.63;5018401;28;20103;-66
2022/11/27 03:53:57;;;;;;;10.18;3.58;;;;;;;5.75;100.00;102308.22;5009703;28;20072;-67
2022/11/27 03:56:36;;;;;;;14.75;3.83;;;;;;;5.69;100.00;102309.38;5008676;28;20077;-66
2022/11/27 03:59:12;;;;;;;9.73;3.22;;;;;;;5.77;100.00;102302.94;5013365;28;20406;-67
2022/11/27 04:01:39;;;;;;;9.10;3.60;;;;;;;5.74;100.00;102294.38;5023556;28;20797;-67
2022/11/27 04:04:06;;;;;;;9.18;3.38;;;;;;;5.77;100.00;102298.59;5017195;28;20076;-66
2022/11/27 04:06:33;;;;;;;9.93;3.60;;;;;;;5.77;100.00;102292.53;5008512;28;20685;-67
2022/11/27 04:08:59;;;;;;;19.30;4.00;;;;;;;5.81;100.00;102297.50;5020492;28;20086;-67
2022/11/27 04:11:26;;;;;;;9.73;3.45;;;;;;;5.87;100.00;102281.56;5012473;28;20559;-66
2022/11/27 04:13:52;;;;;;;11.23;3.70;;;;;;;5.88;100.00;102279.78;5016853;28;20053;-67
2022/11/27 04:16:18;;;;;;;11.52;3.80;;;;;;;5.92;100.00;102289.16;5010513;28;20058;-67
2022/11/27 04:18:45;;;;;;;13.23;3.55;;;;;;;5.89;100.00;102287.53;5003811;28;20449;-66
2022/11/27 04:21:11;;;;;;;7.85;3.30;;;;;;;5.92;100.00;102287.38;5005755;28;20433;-66
2022/11/27 04:23:38;;;;;;;13.25;3.72;;;;;;;5.85;100.00;102272.16;5003797;28;20350;-67
2022/11/27 04:26:05;;;;;;;11.38;3.47;;;;;;;5.85;100.00;102272.97;5023578;28;20568;-67
2022/11/27 04:28:31;;;;;;;8.95;3.72;;;;;;;5.86;100.00;102282.50;5013908;28;20045;-66
2022/11/27 04:30:58;;;;;;;9.13;3.50;;;;;;;5.84;100.00;102275.66;5011579;28;20045;-67
2022/11/27 04:33:24;;;;;;;8.57;3.45;;;;;;;5.79;100.00;102294.13;5019889;28;20041;-67
2022/11/27 04:35:51;;;;;;;9.18;3.53;;;;;;;5.89;100.00;102276.28;5011321;28;20067;-67
2022/11/27 04:38:19;;;;;;;14.52;4.97;;;;;;;5.88;100.00;102278.03;5016460;28;20041;-65
2022/11/27 04:40:45;;;;;;;9.98;3.90;;;;;;;5.94;100.00;102292.50;5021982;28;20103;-66
2022/11/27 04:43:12;;;;;;;9.48;3.67;;;;;;;5.90;100.00;102286.63;5023611;28;20052;-66
2022/11/27 04:45:40;;;;;;;14.02;3.85;;;;;;;5.84;100.00;102286.94;5005686;28;20053;-66
2022/11/27 04:48:07;;;;;;;8.93;3.50;;;;;;;5.86;100.00;102287.69;5008819;28;20060;-67
2022/11/27 04:50:33;;;;;;;9.77;3.70;;;;;;;5.92;100.00;102284.78;5021601;28;20112;-67
2022/11/27 04:52:59;;;;;;;12.77;3.67;;;;;;;5.99;100.00;102280.09;5011838;28;20111;-67
2022/11/27 04:55:26;;;;;;;13.20;3.50;;;;;;;6.02;100.00;102287.75;5001146;28;20045;-67
2022/11/27 04:57:52;;;;;;;8.77;3.65;;;;;;;6.10;100.00;102282.16;5019371;28;20055;-68
2022/11/27 05:00:19;;;;;;;10.35;3.53;;;;;;;6.06;100.00;102268.44;5017226;28;20277;-66
2022/11/27 05:02:46;;;;;;;9.25;3.70;;;;;;;6.10;100.00;102269.13;5011385;28;20064;-66
2022/11/27 05:05:13;;;;;;;13.45;3.30;;;;;;;6.05;100.00;102274.56;5006305;28;20072;-67
2022/11/27 05:07:39;;;;;;;6.10;3.10;;;;;;;6.05;100.00;102269.34;5012294;28;20791;-66
2022/11/27 05:10:06;;;;;;;9.90;3.90;;;;;;;6.05;100.00;102261.53;5018841;28;20084;-66
2022/11/27 05:12:32;;;;;;;12.90;3.22;;;;;;;6.07;100.00;102258.84;5027574;28;20458;-66
2022/11/27 05:14:59;;;;;;;11.00;3.25;;;;;;;6.10;100.00;102258.72;5018776;28;20064;-67
2022/11/27 05:17:29;;;;;;;10.52;3.22;;;;;;;6.07;100.00;102262.28;5005165;28;20144;-67
2022/11/27 05:19:56;;;;;;;7.75;3.30;;;;;;;6.09;100.00;102257.84;5020691;28;20052;-67
2022/11/27 05:22:22;;;;;;;9.40;3.58;;;;;;;6.15;100.00;102251.47;5014004;28;20059;-67
2022/11/27 05:24:48;;;;;;;8.75;4.18;;;;;;;6.10;100.00;102251.72;5021380;28;20045;-67
2022/11/27 05:27:15;;;;;;;7.47;3.60;;;;;;;6.10;100.00;102243.91;5010838;28;20057;-67
2022/11/27 05:29:42;;;;;;;8.38;3.60;;;;;;;6.08;100.00;102234.50;5018003;28;20494;-67
2022/11/27 05:32:08;;;;;;;10.55;4.20;;;;;;;6.02;100.00;102225.25;5004970;28;20057;-66
2022/11/27 05:34:35;;;;;;;8.00;3.15;;;;;;;6.07;100.00;102211.97;5012839;28;20046;-66
2022/11/27 05:37:01;;;;;;;10.52;3.67;;;;;;;6.10;100.00;102217.03;5022012;28;20057;-67
2022/11/27 05:39:27;;;;;;;14.00;3.85;;;;;;;6.11;100.00;102222.13;5015363;28;20561;-67
2022/11/27 05:41:54;;;;;;;9.60;3.72;;;;;;;6.13;100.00;102224.66;5024021;28;20064;-67
2022/11/27 05:44:20;;;;;;;9.45;3.80;;;;;;;6.13;100.00;102222.91;5009043;28;20478;-67
2022/11/27 05:46:47;;;;;;;7.88;3.40;;;;;;;6.15;100.00;102225.41;5012952;28;20542;-66
2022/11/27 05:49:14;;;;;;;7.60;4.10;;;;;;;6.14;100.00;102214.16;5025767;28;20049;-67
2022/11/27 05:51:42;;;;;;;9.47;3.87;;;;;;;6.10;100.00;102219.63;5018698;28;20056;-67
2022/11/27 05:54:16;;;;;;;9.52;4.00;;;;;;;6.10;100.00;102211.81;5021930;28;20131;-67
2022/11/27 05:56:42;;;;;;;9.52;3.85;;;;;;;6.10;100.00;102214.41;5022018;28;20104;-66
2022/11/27 05:59:09;;;;;;;13.88;4.07;;;;;;;6.11;100.00;102214.31;5018496;28;21014;-66
2022/11/27 06:01:36;;;;;;;11.85;4.32;;;;;;;6.13;100.00;102214.22;5010958;28;20818;-67
2022/11/27 06:04:02;;;;;;;10.88;3.88;;;;;;;6.13;100.00;102216.84;5017023;28;20112;-67
2022/11/27 06:06:29;;;;;;;11.40;3.92;;;;;;;6.13;100.00;102216.84;5022248;28;20072;-67
2022/11/27 06:08:55;;;;;;;14.63;4.22;;;;;;;6.17;100.00;102209.69;5010990;28;20049;-68
2022/11/27 06:11:22;;;;;;;11.02;4.10;;;;;;;6.14;100.00;102213.31;5018692;28;20049;-66
2022/11/27 06:13:49;;;;;;;12.57;4.03;;;;;;;6.10;100.00;102202.22;5015736;28;20049;-66
2022/11/27 06:16:19;;;;;;;12.18;3.80;;;;;;;6.20;100.00;102204.34;5021808;28;20060;-66
2022/11/27 06:18:49;;;;;;;10.95;4.18;;;;;;;6.28;100.00;102202.97;5019885;28;20092;-67
2022/11/27 06:21:17;;;;;;;12.70;4.28;;;;;;;6.23;100.00;102199.78;5020964;28;20049;-67
2022/11/27 06:23:43;;;;;;;14.13;3.35;;;;;;;6.34;100.00;102193.97;5016987;28;20236;-67
2022/11/27 06:26:16;;;;;;;9.43;4.30;;;;;;;6.37;100.00;102190.34;5011453;28;20053;-66
2022/11/27 06:28:43;;;;;;;14.73;4.57;;;;;;;6.26;100.00;102185.75;5013648;28;21163;-67
2022/11/27 06:31:13;;;;;;;12.95;4.88;;;;;;;6.28;100.00;102179.53;5020704;28;20318;-67
2022/11/27 06:33:44;;;;;;;8.13;4.20;;;;;;;6.36;100.00;102176.50;5007999;28;20252;-66
2022/11/27 06:36:11;;;;;;;8.95;4.45;;;;;;;6.35;100.00;102172.22;5021241;28;20099;-66
2022/11/27 06:38:38;;;;;;;8.80;4.15;;;;;;;6.33;100.00;102177.50;4989089;28;20053;-67
2022/11/27 06:41:07;;;;;;;9.60;4.13;;;;;;;6.38;100.00;102168.59;5019427;28;20054;-67
2022/11/27 06:43:34;;;;;;;11.27;4.70;;;;;;;6.31;100.00;102168.06;5013748;28;20095;-67
2022/11/27 06:46:02;;;;;;;13.68;4.10;;;;;;;6.33;100.00;102168.84;5019392;28;20052;-67
2022/11/27 06:48:29;;;;;;;9.27;4.68;;;;;;;6.33;100.00;102161.88;5005167;28;20402;-67
2022/11/27 06:51:04;;;;;;;12.00;3.72;;;;;;;6.44;100.00;102161.25;5005859;28;20061;-67
2022/11/27 06:53:32;;;;;;;10.07;5.03;;;;;;;6.42;100.00;102170.94;5006724;28;20053;-67
2022/11/27 06:56:01;;;;;;;11.48;4.93;;;;;;;6.41;100.00;102174.47;5008292;28;20153;-67
2022/11/27 06:58:28;;;;;;;11.00;4.63;;;;;;;6.26;100.00;102165.75;5019627;28;20063;-67
2022/11/27 07:01:00;;;;;;;;;;;;;;;6.39;100.00;102165.03;5011630;28;20065;-67
2022/11/27 07:03:27;;;;;;;15.13;5.93;;;;;;;6.33;100.00;102167.09;5013979;28;19925;-67
2022/11/27 07:05:54;;;;;;;12.55;5.25;;;;;;;6.23;100.00;102165.06;4998649;28;20057;-67
2022/11/27 07:08:21;;;;;;;12.07;5.03;;;;;;;6.17;100.00;102160.19;5014218;28;20433;-66
2022/11/27 07:10:47;;;;;;;12.57;4.97;;;;;;;6.31;100.00;102165.47;5018976;28;20058;-66
2022/11/27 07:13:14;;;;;;;13.90;5.40;;;;;;;6.28;100.00;102156.06;5002346;28;20057;-67
2022/11/27 07:15:40;;;;;;;12.95;5.55;;;;;;;6.31;100.00;102157.66;5014739;28;20050;-67
2022/11/27 07:18:06;;;;;;;16.45;5.72;;;;;;;6.25;100.00;102155.41;5005536;28;20155;-67
2022/11/27 07:20:33;;;;;;;14.77;5.25;;;;;;;6.32;100.00;102151.53;5020523;28;20285;-66
2022/11/27 07:22:59;;;;;;;12.40;5.53;;;;;;;6.28;100.00;102148.25;5005240;28;20054;-66
2022/11/27 07:25:26;;;;;;;11.85;5.60;;;;;;;6.31;100.00;102147.22;5022291;28;20163;-66
2022/11/27 07:27:53;;;;;;;20.00;6.70;;;;;;;6.34;100.00;102136.66;5028673;28;20048;-67
2022/11/27 07:30:20;;;;;;;15.80;6.23;;;;;;;6.42;100.00;102131.00;5022970;28;20059;-67
2022/11/27 07:32:46;;;;;;;16.65;6.72;;;;;;;6.39;100.00;102139.84;5030809;28;20049;-67
2022/11/27 07:35:13;;;;;;;15.30;7.50;;;;;;;6.40;100.00;102125.03;5014794;28;20053;-67
2022/11/27 07:37:39;;;;;;;17.63;6.50;;;;;;;6.50;100.00;102137.44;5019756;28;20402;-67
2022/11/27 07:40:06;;;;;;;12.57;6.47;;;;;;;6.47;100.00;102135.03;5013806;28;20050;-68
2022/11/27 07:42:32;;;;;;;19.73;8.93;;;;;;;6.46;100.00;102130.72;5008136;28;20050;-66
2022/11/27 07:45:06;;;;;;;18.33;8.32;;;;;;;6.51;100.00;102126.09;5023108;28;20052;-67
2022/11/27 07:47:33;;;;;;;16.90;6.78;;;;;;;6.59;100.00;102127.44;5015895;28;20057;-67
2022/11/27 07:49:59;;;;;;;16.25;7.60;;;;;;;6.54;100.00;102123.31;5021549;28;20065;-67
2022/11/27 07:52:26;;;;;;;15.00;7.30;;;;;;;6.58;100.00;102120.53;5011757;28;20125;-66
2022/11/27 07:54:52;;;;;;;15.18;6.93;;;;;;;6.54;100.00;102125.06;5016755;28;20046;-67
2022/11/27 07:57:19;;;;;;;16.98;7.72;;;;;;;6.48;100.00;102125.44;5027786;28;20518;-67
2022/11/27 07:59:45;;;;;;;16.50;8.30;;;;;;;6.51;100.00;102115.69;5020557;28;20056;-67
2022/11/27 08:02:13;;;;;;;19.00;6.60;;;;;;;6.53;100.00;102108.59;5022307;28;21345;-67
2022/11/27 08:04:39;;;;;;;14.43;6.78;;;;;;;6.48;100.00;102097.59;5008373;28;20421;-66
2022/11/27 08:07:06;;;;;;;15.95;7.90;;;;;;;6.47;100.00;102097.69;5017685;28;20041;-67
2022/11/27 08:09:33;;;;;;;15.63;6.60;;;;;;;6.51;100.00;102092.22;5016136;28;20080;-67
2022/11/27 08:11:59;;;;;;;20.63;7.28;;;;;;;6.51;100.00;102087.00;5018913;28;20049;-68
2022/11/27 08:14:26;;;;;;;17.77;7.85;;;;;;;6.50;100.00;102084.47;5022560;28;20055;-67
2022/11/27 08:16:52;;;;;;;15.07;7.13;;;;;;;6.47;100.00;102095.09;5007778;28;20341;-67
2022/11/27 08:19:19;;;;;;;12.07;6.35;;;;;;;6.47;100.00;102087.28;5021498;28;20136;-68
2022/11/27 08:21:45;;;;;;;14.82;7.50;;;;;;;6.44;100.00;102090.88;5016631;28;20136;-67
2022/11/27 08:24:12;;;;;;;12.73;6.43;;;;;;;6.55;100.00;102087.66;5022012;28;20056;-67
2022/11/27 08:26:38;;;;;;;17.85;7.85;;;;;;;6.51;100.00;102097.44;5018399;28;20060;-67
2022/11/27 08:29:05;;;;;;;14.63;6.63;;;;;;;6.40;100.00;102096.38;5021071;28;20513;-68
2022/11/27 08:31:32;;;;;;;15.60;7.15;;;;;;;6.38;100.00;102095.63;5012791;28;20482;-67
2022/11/27 08:33:59;;;;;;;16.13;7.30;;;;;;;6.42;100.00;102092.75;5013386;28;20057;-67
2022/11/27 08:36:25;;;;;;;18.30;7.93;;;;;;;6.39;100.00;102085.09;5026240;28;20057;-66
2022/11/27 08:38:53;;;;;;;19.70;8.50;;;;;;;6.47;100.00;102087.28;5019036;28;20095;-67
2022/11/27 08:41:20;;;;;;;17.73;7.95;;;;;;;6.32;100.00;102082.00;5022729;28;20077;-67
2022/11/27 08:43:46;;;;;;;20.15;8.10;;;;;;;6.39;100.00;102086.84;5014299;28;20053;-66
2022/11/27 08:46:13;;;;;;;15.43;6.90;;;;;;;6.45;100.00;102074.31;5003222;28;20053;-66
2022/11/27 08:48:40;;;;;;;15.38;6.90;;;;;;;6.44;100.00;102077.84;5000282;28;20137;-66
2022/11/27 08:51:12;;;;;;;17.73;7.13;;;;;;;6.47;100.00;102082.06;5008839;28;20081;-66
2022/11/27 08:53:39;;;;;;;13.57;6.63;;;;;;;6.47;100.00;102082.06;5026967;28;20041;-66
2022/11/27 08:56:10;;;;;;;16.80;7.53;;;;;;;6.48;100.00;102071.53;5017694;28;20052;-66
2022/11/27 08:58:36;;;;;;;15.43;7.15;;;;;;;6.44;100.00;102075.25;5021586;28;20053;-67
2022/11/27 09:01:10;;;;;;;16.80;7.43;;;;;;;6.46;100.00;102062.97;5019875;28;20045;-67
2022/11/27 09:03:37;;;;;;;18.55;7.85;;;;;;;6.47;100.00;102056.81;5004503;28;20568;-66
2022/11/27 09:06:13;;;;;;;15.07;6.53;;;;;;;6.48;100.00;102055.06;5022577;28;20085;-66
2022/11/27 09:08:41;;;;;;;14.52;7.65;;;;;;;6.58;100.00;102057.97;5011788;28;20786;-66
2022/11/27 09:11:08;;;;;;;14.17;6.97;;;;;;;6.56;100.00;102054.59;5013202;28;20132;-66
2022/11/27 09:13:36;;;;;;;16.02;7.20;;;;;;;6.54;100.00;102067.72;5001340;28;20484;-66
2022/11/27 09:16:04;;;;;;;12.88;6.80;;;;;;;6.62;100.00;102059.47;5004528;28;20054;-66
2022/11/27 09:18:31;;;;;;;16.67;8.13;;;;;;;6.57;100.00;102059.75;5008037;28;20045;-66
2022/11/27 09:21:05;;;;;;;13.93;6.85;;;;;;;6.62;100.00;102054.25;5010603;28;20042;-66
2022/11/27 09:23:32;;;;;;;14.90;5.95;;;;;;;6.62;100.00;102064.66;5012371;28;20052;-66
2022/11/27 09:26:03;;;;;;;13.07;6.20;;;;;;;6.54;100.00;102065.94;5014915;28;20053;-65
2022/11/27 09:28:31;;;;;;;16.35;6.80;;;;;;;6.49;100.00;102056.75;5016555;28;20049;-65
2022/11/27 09:30:59;;;;;;;18.52;8.13;;;;;;;6.62;100.00;102059.47;5010293;28;20057;-66
2022/11/27 09:33:28;;;;;;;16.95;6.88;;;;;;;6.70;100.00;102054.63;5016943;28;20045;-66
2022/11/27 09:35:55;;;;;;;17.05;8.10;;;;;;;6.63;100.00;102048.94;5001998;28;20064;-66
2022/11/27 09:38:22;;;;;;;15.82;8.13;;;;;;;6.45;100.00;102053.47;5016875;28;20106;-65
2022/11/27 09:40:55;;;;;;;16.00;7.32;;;;;;;6.51;100.00;102058.31;5020688;28;20064;-65
2022/11/27 09:43:33;;;;;;;14.43;6.68;;;;;;;6.58;100.00;102055.34;4996120;28;20050;-65
2022/11/27 09:46:07;;;;;;;14.55;6.72;;;;;;;6.55;100.00;102061.59;5016856;28;20088;-65
2022/11/27 09:48:41;;;;;;;14.48;6.57;;;;;;;6.60;100.00;102066.53;5017754;28;20049;-66
2022/11/27 09:51:18;;;;;;;12.00;6.38;;;;;;;6.64;100.00;102057.59;5022404;28;20089;-66
2022/11/27 09:53:49;;;;;;;9.77;6.05;;;;;;;6.66;100.00;102055.72;5017643;28;20049;-66
2022/11/27 09:56:17;;;;;;;11.52;6.20;;;;;;;6.68;100.00;102049.53;5014455;28;20482;-65
2022/11/27 09:58:53;;;;;;;16.42;6.65;;;;;;;6.65;100.00;102052.28;5014794;28;20041;-66
2022/11/27 10:01:24;;;;;;;14.05;6.50;;;;;;;6.61;100.00;102050.81;5017653;28;20064;-66
2022/11/27 10:04:01;;;;;;;15.88;6.72;;;;;;;6.58;100.00;102050.13;5011790;28;20135;-66
2022/11/27 10:06:35;;;;;;;14.13;7.18;;;;;;;6.64;100.00;102041.94;5017546;28;20060;-65
2022/11/27 10:09:11;;;;;;;13.50;6.82;;;;;;;6.75;100.00;102038.72;5019467;28;20053;-67
2022/11/27 10:11:52;;;;;;;17.52;7.22;;;;;;;6.67;100.00;102033.97;5013754;28;20136;-66
2022/11/27 10:14:33;;;;;;;16.00;7.05;;;;;;;6.67;100.00;102036.56;5016136;28;20060;-66
2022/11/27 10:17:06;;;;;;;15.02;6.75;;;;;;;6.65;100.00;102026.22;5007575;28;20054;-66
2022/11/27 10:20:22;;;;;;;16.15;6.88;;;;;;;6.64;100.00;102028.91;5011348;28;20160;-66
2022/11/27 10:23:13;;;;;;;12.35;6.68;;;;;;;6.74;100.00;102030.03;4987426;28;20485;-61
2022/11/27 10:25:53;;;;;;;14.95;6.85;;;;;;;6.68;100.00;102022.59;4981652;28;20739;-62
2022/11/27 10:28:38;;;;;;;14.50;7.38;;;;;;;6.78;100.00;102012.44;5001076;28;20170;-63
2022/11/27 10:31:16;;;;;;;14.70;6.85;;;;;;;6.85;100.00;102000.72;5013885;28;21139;-63
2022/11/27 10:33:52;;;;;;;13.55;6.72;;;;;;;6.89;100.00;102005.66;5020097;28;20078;-63
2022/11/27 10:36:30;;;;;;;14.38;6.60;;;;;;;6.82;100.00;102000.88;5014942;28;20516;-63
2022/11/27 10:39:00;;;;;;;11.93;6.00;;;;;;;6.92;100.00;102000.25;5017101;28;20063;-63
2022/11/27 10:41:36;;;;;;;11.63;5.97;;;;;;;6.98;100.00;101993.81;5012373;28;20136;-63
2022/11/27 10:44:31;;;;;;;10.80;6.20;;;;;;;7.00;100.00;101991.97;5012323;28;20045;-63
2022/11/27 10:47:03;;;;;;;15.85;6.85;;;;;;;7.01;100.00;101990.19;5008059;28;20042;-62
2022/11/27 10:49:30;;;;;;;9.75;5.90;;;;;;;7.04;100.00;101977.78;5004547;28;20053;-62
2022/11/27 10:51:56;;;;;;;15.93;6.90;;;;;;;7.03;100.00;101977.88;5019127;28;20057;-62
2022/11/27 10:54:31;;;;;;;14.82;6.07;;;;;;;7.09;100.00;101962.66;4998715;28;20061;-62
2022/11/27 10:57:35;;;;;;;14.38;7.28;;;;;;;7.20;100.00;101958.56;5009043;28;20058;-62
2022/11/27 11:00:23;;;;;;;12.57;6.10;;;;;;;7.23;100.00;101960.97;5001367;28;20451;-62
2022/11/27 11:03:00;;;;;;;13.38;6.50;;;;;;;7.27;100.00;101950.25;5013983;28;20056;-64
2022/11/27 11:05:27;;;;;;;11.55;6.72;;;;;;;7.30;100.00;101950.06;4996960;28;20482;-63
2022/11/27 11:08:18;;;;;;;13.88;6.53;;;;;;;7.37;100.00;101953.13;5009100;28;20111;-64
2022/11/27 11:11:00;;;;;;;10.55;6.20;;;;;;;7.36;100.00;101935.78;4990862;28;20503;-63
2022/11/27 11:13:29;;;;;;;14.35;6.35;;;;;;;7.32;100.00;101945.56;5017561;28;20131;-63
2022/11/27 11:16:05;;;;;;;10.93;5.53;;;;;;;7.33;100.00;101949.00;5010943;28;20053;-62
2022/11/27 11:18:40;;;;;;;12.70;6.13;;;;;;;7.28;100.00;101941.47;5016304;28;20524;-63
2022/11/27 11:21:16;;;;;;;11.65;5.93;;;;;;;7.35;100.00;101941.94;5012145;28;20049;-64
2022/11/27 11:23:45;;;;;;;11.48;5.82;;;;;;;7.28;100.00;101925.00;5007392;28;20350;-62
2022/11/27 11:26:30;;;;;;;11.23;6.22;;;;;;;7.28;100.00;101923.22;5014282;28;20095;-63
2022/11/27 11:29:00;;;;;;;11.80;5.95;;;;;;;7.35;100.00;101918.47;4999676;28;20049;-63
2022/11/27 11:31:35;;;;;;;11.98;5.30;;;;;;;7.30;100.00;101923.13;5005633;28;20064;-63
2022/11/27 11:34:17;;;;;;;12.77;6.45;;;;;;;7.38;100.00;101910.41;5007173;28;20053;-63
2022/11/27 11:36:56;;;;;;;17.38;7.57;;;;;;;7.32;100.00;101906.41;5015055;28;20075;-67